Time;durP1;ratioP1;P1;durP2;ratioP2;P2;SDS_P1;SDS_P2;PMS_P1;PMS_P2;Temp;Humidity;BMP_temperature;BMP_pressure;BME280_temperature;BME280_humidity;BME280_pressure;Samples;Min_cycle;Max_cycle;Signal;HPM_P1;HPM_P2
2024/03/06 00:00:09;;;;;;;33.33;21.52;;;;;;;;;;5074584;28;20097;-71
2024/03/06 00:02:36;;;;;;;31.83;20.85;;;;;;;;;;5079155;28;20051;-71
2024/03/06 00:05:04;;;;;;;28.13;20.70;;;;;;;;;;5087367;28;20052;-71
2024/03/06 00:07:30;;;;;;;30.93;21.30;;;;;;;;;;5071233;28;20060;-71
2024/03/06 00:09:57;;;;;;;33.88;22.17;;;;;;;;;;5057197;28;20289;-71
2024/03/06 00:12:24;;;;;;;36.08;22.27;;;;;;;;;;5048603;28;20420;-71
2024/03/06 00:14:50;;;;;;;32.13;20.55;;;;;;;;;;5047688;28;20044;-71
2024/03/06 00:17:17;;;;;;;29.90;20.92;;;;;;;;;;5071822;28;20047;-71
2024/03/06 00:19:43;;;;;;;30.88;21.23;;;;;;;;;;5076205;28;20045;-72
2024/03/06 00:22:10;;;;;;;31.98;21.17;;;;;;;;;;5069921;28;20048;-70
2024/03/06 00:24:36;;;;;;;30.65;20.45;;;;;;;;;;5073192;28;20076;-73
2024/03/06 00:27:04;;;;;;;32.97;21.35;;;;;;;;;;5077160;28;20054;-72
2024/03/06 00:29:31;;;;;;;30.73;22.10;;;;;;;;;;5069921;28;20049;-71
2024/03/06 00:31:58;;;;;;;33.07;21.07;;;;;;;;;;5056547;28;20373;-71
2024/03/06 00:34:26;;;;;;;30.83;22.67;;;;;;;;;;5060591;28;20059;-71
2024/03/06 00:36:54;;;;;;;34.20;20.85;;;;;;;;;;5047017;28;20037;-71
2024/03/06 00:39:20;;;;;;;28.60;21.10;;;;;;;;;;5079021;28;20053;-72
2024/03/06 00:41:47;;;;;;;29.70;21.05;;;;;;;;;;5052119;28;20080;-72
2024/03/06 00:44:14;;;;;;;27.85;19.85;;;;;;;;;;5075402;28;20072;-73
2024/03/06 00:46:41;;;;;;;32.45;20.42;;;;;;;;;;5082844;28;20097;-70
2024/03/06 00:49:07;;;;;;;29.77;20.15;;;;;;;;;;5076567;28;20051;-71
2024/03/06 00:51:36;;;;;;;27.15;20.05;;;;;;;;;;5093255;28;20044;-72
2024/03/06 00:54:14;;;;;;;28.10;19.33;;;;;;;;;;5088712;28;20052;-71
2024/03/06 00:56:40;;;;;;;28.88;20.02;;;;;;;;;;5071860;28;20079;-72
2024/03/06 00:59:07;;;;;;;30.10;20.15;;;;;;;;;;5078125;28;20558;-71
2024/03/06 01:01:33;;;;;;;32.58;20.77;;;;;;;;;;5063600;28;20076;-71
2024/03/06 01:04:00;;;;;;;29.40;20.88;;;;;;;;;;5060806;28;20124;-76
2024/03/06 01:06:26;;;;;;;29.70;20.17;;;;;;;;;;5081181;28;20036;-75
2024/03/06 01:08:54;;;;;;;29.30;19.63;;;;;;;;;;5074739;28;20117;-75
2024/03/06 01:11:21;;;;;;;30.77;19.90;;;;;;;;;;5068611;28;20524;-74
2024/03/06 01:13:48;;;;;;;26.23;19.13;;;;;;;;;;5081671;28;20058;-74
2024/03/06 01:16:14;;;;;;;28.02;18.88;;;;;;;;;;5083845;28;20040;-75
2024/03/06 01:18:41;;;;;;;24.95;17.52;;;;;;;;;;5077577;28;20051;-75
2024/03/06 01:21:07;;;;;;;26.52;17.15;;;;;;;;;;5051102;28;20079;-75
2024/03/06 01:23:34;;;;;;;24.35;16.95;;;;;;;;;;5056093;28;20135;-75
2024/03/06 01:26:00;;;;;;;25.85;18.08;;;;;;;;;;5083460;28;20528;-74
2024/03/06 01:28:27;;;;;;;25.85;18.05;;;;;;;;;;5085741;28;20215;-75
2024/03/06 01:30:54;;;;;;;27.13;17.55;;;;;;;;;;5064088;28;20056;-74
2024/03/06 01:33:20;;;;;;;26.83;17.67;;;;;;;;;;5060021;28;20135;-75
2024/03/06 01:35:47;;;;;;;23.83;16.25;;;;;;;;;;5081121;28;20093;-74
2024/03/06 01:38:15;;;;;;;24.05;17.08;;;;;;;;;;5075809;28;20076;-74
2024/03/06 01:40:42;;;;;;;;;;;;;;;;;;5074005;28;20058;-74
2024/03/06 01:43:17;;;;;;;20.08;14.27;;;;;;;;;;5066625;28;20652;-75
2024/03/06 01:45:43;;;;;;;22.92;15.27;;;;;;;;;;5072673;28;20076;-74
2024/03/06 01:48:10;;;;;;;20.58;15.52;;;;;;;;;;5063488;28;20080;-74
2024/03/06 01:50:37;;;;;;;21.90;15.43;;;;;;;;;;5086260;28;20067;-74
2024/03/06 01:53:03;;;;;;;25.00;17.23;;;;;;;;;;5083067;28;20052;-75
2024/03/06 01:55:30;;;;;;;19.65;15.00;;;;;;;;;;5068653;28;20049;-75
2024/03/06 01:57:56;;;;;;;21.05;15.77;;;;;;;;;;5065072;28;20040;-74
2024/03/06 02:00:23;;;;;;;22.65;16.65;;;;;;;;;;5066181;28;20048;-75
2024/03/06 02:02:50;;;;;;;22.77;15.05;;;;;;;;;;5084643;28;20040;-74
2024/03/06 02:05:16;;;;;;;19.05;13.55;;;;;;;;;;5045139;28;20056;-75
2024/03/06 02:07:44;;;;;;;21.40;14.85;;;;;;;;;;5067574;28;20040;-75
2024/03/06 02:10:12;;;;;;;19.33;14.35;;;;;;;;;;5075932;28;20503;-75
2024/03/06 02:12:38;;;;;;;22.20;14.68;;;;;;;;;;5059007;28;20143;-75
2024/03/06 02:15:05;;;;;;;22.05;13.98;;;;;;;;;;5074643;28;20409;-74
2024/03/06 02:17:32;;;;;;;21.00;14.55;;;;;;;;;;5076261;28;20583;-75
2024/03/06 02:19:58;;;;;;;24.17;16.23;;;;;;;;;;5086482;28;20800;-75
2024/03/06 02:22:24;;;;;;;23.30;16.60;;;;;;;;;;5081553;28;20052;-75
2024/03/06 02:24:51;;;;;;;19.15;14.98;;;;;;;;;;5080698;28;20143;-75
2024/03/06 02:27:18;;;;;;;21.92;13.35;;;;;;;;;;5072551;28;20151;-76
2024/03/06 02:29:44;;;;;;;23.90;15.38;;;;;;;;;;5072214;28;20048;-75
2024/03/06 02:32:12;;;;;;;22.15;13.93;;;;;;;;;;5067491;28;20127;-75
2024/03/06 02:34:39;;;;;;;25.42;17.27;;;;;;;;;;5071961;28;20510;-74
2024/03/06 02:37:05;;;;;;;23.42;17.00;;;;;;;;;;5085945;28;20036;-75
2024/03/06 02:39:32;;;;;;;23.92;16.30;;;;;;;;;;5085432;28;20048;-75
2024/03/06 02:41:58;;;;;;;22.85;16.13;;;;;;;;;;5061888;28;20080;-72
2024/03/06 02:44:24;;;;;;;25.40;16.58;;;;;;;;;;5060652;28;20040;-74
2024/03/06 02:46:51;;;;;;;25.48;17.27;;;;;;;;;;5052894;28;20127;-74
2024/03/06 02:49:18;;;;;;;25.50;17.75;;;;;;;;;;5058063;28;20048;-74
2024/03/06 02:51:45;;;;;;;24.90;17.17;;;;;;;;;;5073355;28;20091;-75
2024/03/06 02:54:11;;;;;;;22.65;16.48;;;;;;;;;;5076823;28;20048;-74
2024/03/06 02:56:37;;;;;;;22.20;15.93;;;;;;;;;;5074138;28;20416;-74
2024/03/06 02:59:04;;;;;;;23.88;16.27;;;;;;;;;;5078717;28;20051;-75
2024/03/06 03:01:31;;;;;;;22.02;15.65;;;;;;;;;;5069501;28;20477;-74
2024/03/06 03:03:57;;;;;;;20.58;15.85;;;;;;;;;;5068804;28;20409;-75
2024/03/06 03:06:24;;;;;;;21.75;15.82;;;;;;;;;;5062628;28;20055;-74
2024/03/06 03:08:50;;;;;;;21.00;14.93;;;;;;;;;;5052521;28;20466;-74
2024/03/06 03:11:17;;;;;;;19.40;14.65;;;;;;;;;;5052206;28;20052;-74
2024/03/06 03:13:43;;;;;;;22.70;15.00;;;;;;;;;;5057162;28;20143;-74
2024/03/06 03:16:17;;;;;;;21.13;14.93;;;;;;;;;;5059235;28;20044;-75
2024/03/06 03:18:44;;;;;;;21.40;14.30;;;;;;;;;;5075146;28;20052;-74
2024/03/06 03:21:12;;;;;;;21.10;14.57;;;;;;;;;;5070034;28;20051;-74
2024/03/06 03:23:39;;;;;;;22.85;16.23;;;;;;;;;;5071498;28;20075;-73
2024/03/06 03:26:06;;;;;;;23.38;15.05;;;;;;;;;;5063009;28;20048;-73
2024/03/06 03:28:32;;;;;;;41.97;17.95;;;;;;;;;;5058739;28;20044;-72
2024/03/06 03:30:59;;;;;;;71.72;19.73;;;;;;;;;;5060182;28;20052;-72
2024/03/06 03:33:25;;;;;;;67.55;20.38;;;;;;;;;;5056647;28;20080;-72
2024/03/06 03:35:51;;;;;;;81.38;18.55;;;;;;;;;;5069214;28;20139;-72
2024/03/06 03:38:18;;;;;;;38.03;17.45;;;;;;;;;;5069390;28;20164;-73
2024/03/06 03:40:44;;;;;;;25.70;16.77;;;;;;;;;;5068046;28;20124;-74
2024/03/06 03:43:11;;;;;;;22.85;14.98;;;;;;;;;;5079988;28;20159;-72
2024/03/06 03:45:38;;;;;;;24.65;14.93;;;;;;;;;;5071110;28;20048;-74
2024/03/06 03:48:04;;;;;;;37.05;13.57;;;;;;;;;;5078542;28;20779;-72
2024/03/06 03:50:31;;;;;;;52.63;15.07;;;;;;;;;;5072898;28;20083;-72
2024/03/06 03:52:57;;;;;;;17.30;13.57;;;;;;;;;;5052861;28;20408;-72
2024/03/06 03:55:24;;;;;;;16.70;13.00;;;;;;;;;;5068588;28;20048;-72
2024/03/06 03:57:52;;;;;;;17.17;12.85;;;;;;;;;;5070527;28;20120;-71
2024/03/06 04:00:19;;;;;;;45.67;16.48;;;;;;;;;;5071855;28;20427;-72
2024/03/06 04:02:45;;;;;;;19.45;14.18;;;;;;;;;;5067172;28;20114;-72
2024/03/06 04:05:12;;;;;;;17.60;13.27;;;;;;;;;;5065499;28;20110;-74
2024/03/06 04:07:39;;;;;;;19.48;13.77;;;;;;;;;;5060063;28;20044;-71
2024/03/06 04:10:06;;;;;;;17.80;13.63;;;;;;;;;;5055021;28;20048;-71
2024/03/06 04:12:32;;;;;;;18.02;13.10;;;;;;;;;;5075064;28;20055;-71
2024/03/06 04:14:58;;;;;;;19.92;13.30;;;;;;;;;;5076370;28;20052;-74
2024/03/06 04:17:25;;;;;;;20.90;13.38;;;;;;;;;;5079796;28;20686;-70
2024/03/06 04:19:53;;;;;;;23.33;13.25;;;;;;;;;;5064280;28;20048;-71
2024/03/06 04:22:20;;;;;;;31.87;13.60;;;;;;;;;;5079049;28;20052;-72
2024/03/06 04:24:46;;;;;;;23.27;12.95;;;;;;;;;;5058052;28;20072;-72
2024/03/06 04:27:12;;;;;;;23.33;11.43;;;;;;;;;;5064548;28;20125;-73
2024/03/06 04:29:39;;;;;;;21.10;11.70;;;;;;;;;;5070155;28;20056;-72
2024/03/06 04:32:05;;;;;;;15.55;12.40;;;;;;;;;;5070769;28;20055;-72
2024/03/06 04:34:32;;;;;;;15.35;12.65;;;;;;;;;;5067861;28;20493;-74
2024/03/06 04:36:58;;;;;;;17.48;12.88;;;;;;;;;;5062608;28;20052;-74
2024/03/06 04:39:25;;;;;;;47.53;11.73;;;;;;;;;;5061075;28;20067;-75
2024/03/06 04:41:51;;;;;;;52.65;12.57;;;;;;;;;;5062481;28;20101;-74
2024/03/06 04:44:18;;;;;;;40.60;12.02;;;;;;;;;;5057166;28;20230;-75
2024/03/06 04:46:44;;;;;;;34.33;12.38;;;;;;;;;;5067020;28;20053;-75
2024/03/06 04:49:11;;;;;;;28.17;11.75;;;;;;;;;;5064048;28;20056;-74
2024/03/06 04:51:37;;;;;;;18.55;12.25;;;;;;;;;;5055633;28;20060;-74
2024/03/06 04:54:04;;;;;;;22.58;12.63;;;;;;;;;;5085558;28;20059;-74
2024/03/06 04:56:30;;;;;;;46.63;14.82;;;;;;;;;;5079326;28;20048;-74
2024/03/06 04:59:02;;;;;;;45.53;14.80;;;;;;;;;;5082614;28;20579;-74
2024/03/06 05:01:29;;;;;;;58.35;14.68;;;;;;;;;;5077260;28;20064;-74
2024/03/06 05:03:55;;;;;;;175.35;20.35;;;;;;;;;;5053427;28;20044;-74
2024/03/06 05:06:39;;;;;;;223.32;17.15;;;;;;;;;;5063909;28;20051;-74
2024/03/06 05:09:23;;;;;;;109.78;17.52;;;;;;;;;;5076080;28;20108;-74
2024/03/06 05:12:08;;;;;;;122.50;16.02;;;;;;;;;;5066142;28;20534;-74
2024/03/06 05:14:52;;;;;;;112.85;15.90;;;;;;;;;;5058766;28;20071;-75
2024/03/06 05:17:36;;;;;;;117.20;16.67;;;;;;;;;;5068478;28;20066;-75
2024/03/06 05:20:20;;;;;;;115.65;17.55;;;;;;;;;;5061090;28;20083;-75
2024/03/06 05:23:04;;;;;;;110.18;16.48;;;;;;;;;;5076049;28;20411;-74
2024/03/06 05:25:48;;;;;;;80.68;16.27;;;;;;;;;;5059388;28;20489;-74
2024/03/06 05:28:32;;;;;;;100.72;15.13;;;;;;;;;;5084430;28;20079;-74
2024/03/06 05:31:20;;;;;;;92.72;16.20;;;;;;;;;;5075111;28;20087;-74
2024/03/06 05:34:05;;;;;;;46.83;15.00;;;;;;;;;;5079458;28;20132;-74
2024/03/06 05:36:49;;;;;;;41.40;15.18;;;;;;;;;;5053110;28;20086;-75
2024/03/06 05:39:33;;;;;;;71.95;15.77;;;;;;;;;;5064140;28;20699;-73
2024/03/06 05:42:18;;;;;;;44.63;14.05;;;;;;;;;;5070458;28;20392;-74
2024/03/06 05:45:10;;;;;;;23.90;13.88;;;;;;;;;;5083945;28;20418;-71
2024/03/06 05:47:54;;;;;;;40.35;13.55;;;;;;;;;;5090670;28;20051;-72
2024/03/06 05:50:39;;;;;;;95.32;15.15;;;;;;;;;;5072481;28;20027;-73
2024/03/06 05:53:23;;;;;;;153.95;16.75;;;;;;;;;;5078050;28;20412;-74
2024/03/06 05:56:07;;;;;;;106.30;16.58;;;;;;;;;;5069181;28;20060;-74
2024/03/06 05:58:51;;;;;;;58.53;15.07;;;;;;;;;;5071880;28;20566;-74
2024/03/06 06:01:21;;;;;;;86.07;14.45;;;;;;;;;;5086120;28;20044;-73
2024/03/06 06:03:48;;;;;;;92.40;15.93;;;;;;;;;;5069946;28;20036;-72
2024/03/06 06:06:19;;;;;;;39.72;15.10;;;;;;;;;;5072270;28;20132;-72
2024/03/06 06:08:45;;;;;;;125.90;14.70;;;;;;;;;;5067075;28;20131;-72
2024/03/06 06:11:12;;;;;;;55.67;14.63;;;;;;;;;;5073423;28;20048;-72
2024/03/06 06:13:41;;;;;;;45.35;15.30;;;;;;;;;;5067362;28;20542;-73
2024/03/06 06:16:08;;;;;;;41.00;12.60;;;;;;;;;;5060241;28;20457;-72
2024/03/06 06:18:34;;;;;;;79.72;14.02;;;;;;;;;;5080941;28;20043;-72
2024/03/06 06:21:01;;;;;;;41.55;13.57;;;;;;;;;;5065758;28;20480;-73
2024/03/06 06:23:28;;;;;;;61.63;14.50;;;;;;;;;;5065875;28;20049;-71
2024/03/06 06:25:54;;;;;;;56.63;15.25;;;;;;;;;;5045544;28;20414;-73
2024/03/06 06:28:21;;;;;;;40.88;15.25;;;;;;;;;;5074985;28;20056;-72
2024/03/06 06:30:47;;;;;;;64.03;16.58;;;;;;;;;;5079963;28;20182;-72
2024/03/06 06:33:13;;;;;;;31.88;13.80;;;;;;;;;;5057105;28;20040;-72
2024/03/06 06:35:40;;;;;;;42.97;14.93;;;;;;;;;;5074978;28;20063;-72
2024/03/06 06:38:07;;;;;;;68.00;17.35;;;;;;;;;;5085017;28;20052;-73
2024/03/06 06:40:33;;;;;;;45.05;15.20;;;;;;;;;;5053391;28;20727;-72
2024/03/06 06:43:00;;;;;;;40.45;15.82;;;;;;;;;;5066328;28;20050;-72
2024/03/06 06:45:26;;;;;;;33.67;16.40;;;;;;;;;;5071736;28;20612;-72
2024/03/06 06:47:53;;;;;;;30.10;15.50;;;;;;;;;;5069286;28;20048;-73
2024/03/06 06:50:23;;;;;;;30.67;15.85;;;;;;;;;;5064034;28;20063;-73
2024/03/06 06:52:49;;;;;;;63.45;17.13;;;;;;;;;;5069793;28;20047;-72
2024/03/06 06:55:16;;;;;;;34.08;16.38;;;;;;;;;;5076272;28;20530;-73
2024/03/06 06:57:42;;;;;;;46.15;16.63;;;;;;;;;;5051217;28;20052;-72
2024/03/06 07:00:11;;;;;;;77.78;18.63;;;;;;;;;;5070653;28;20052;-73
2024/03/06 07:02:39;;;;;;;46.42;16.63;;;;;;;;;;5087882;28;20428;-73
2024/03/06 07:05:06;;;;;;;72.85;18.83;;;;;;;;;;5071387;28;20411;-72
2024/03/06 07:07:32;;;;;;;64.97;17.27;;;;;;;;;;5076644;28;20052;-72
2024/03/06 07:09:59;;;;;;;135.63;19.90;;;;;;;;;;5073225;28;20052;-72
2024/03/06 07:12:25;;;;;;;110.78;19.40;;;;;;;;;;5072246;28;20052;-72
2024/03/06 07:14:51;;;;;;;67.18;18.33;;;;;;;;;;5071359;28;20497;-73
2024/03/06 07:17:18;;;;;;;93.50;21.27;;;;;;;;;;5072862;28;20048;-74
2024/03/06 07:19:44;;;;;;;98.40;20.15;;;;;;;;;;5064108;28;20045;-73
2024/03/06 07:22:10;;;;;;;99.32;21.30;;;;;;;;;;5052349;28;20091;-73
2024/03/06 07:24:37;;;;;;;60.55;18.75;;;;;;;;;;5067193;28;20052;-74
2024/03/06 07:27:04;;;;;;;71.43;19.40;;;;;;;;;;5073276;28;20048;-72
2024/03/06 07:29:31;;;;;;;164.60;23.95;;;;;;;;;;5060987;28;20118;-72
2024/03/06 07:31:57;;;;;;;90.45;19.88;;;;;;;;;;5088799;28;20128;-72
2024/03/06 07:34:25;;;;;;;58.13;20.65;;;;;;;;;;5069935;28;20621;-72
2024/03/06 07:36:51;;;;;;;66.72;22.88;;;;;;;;;;5060978;28;20059;-73
2024/03/06 07:39:21;;;;;;;188.32;28.20;;;;;;;;;;5080050;28;20048;-73
2024/03/06 07:41:47;;;;;;;176.52;28.30;;;;;;;;;;5084637;28;20126;-73
2024/03/06 07:44:14;;;;;;;134.85;25.23;;;;;;;;;;5066687;28;20255;-72
2024/03/06 07:46:40;;;;;;;86.07;25.05;;;;;;;;;;5080639;28;20683;-74
2024/03/06 07:49:07;;;;;;;168.45;26.85;;;;;;;;;;5061343;28;20048;-73
2024/03/06 07:51:33;;;;;;;107.72;26.15;;;;;;;;;;5067245;28;20463;-72
2024/03/06 07:54:00;;;;;;;128.82;26.83;;;;;;;;;;5073501;28;20131;-73
2024/03/06 07:56:28;;;;;;;97.20;25.13;;;;;;;;;;5063765;28;20055;-73
2024/03/06 07:58:55;;;;;;;105.13;24.60;;;;;;;;;;5060591;28;20633;-73
2024/03/06 08:01:22;;;;;;;89.75;24.40;;;;;;;;;;5079654;28;20044;-73
2024/03/06 08:03:48;;;;;;;100.65;25.67;;;;;;;;;;5075290;28;20082;-73
2024/03/06 08:06:17;;;;;;;112.70;25.13;;;;;;;;;;5062307;28;20080;-73
2024/03/06 08:08:44;;;;;;;76.30;23.13;;;;;;;;;;5069763;28;20052;-74
2024/03/06 08:11:11;;;;;;;83.10;26.92;;;;;;;;;;5082512;28;20591;-73
2024/03/06 08:13:38;;;;;;;85.60;24.15;;;;;;;;;;5078026;28;20040;-73
2024/03/06 08:16:05;;;;;;;127.88;27.90;;;;;;;;;;5076414;28;20060;-73
2024/03/06 08:18:32;;;;;;;133.88;27.75;;;;;;;;;;5063970;28;20052;-73
2024/03/06 08:20:58;;;;;;;119.57;26.88;;;;;;;;;;5072071;28;20531;-73
2024/03/06 08:23:25;;;;;;;65.45;26.13;;;;;;;;;;5064239;28;20144;-73
2024/03/06 08:25:52;;;;;;;82.50;26.75;;;;;;;;;;5051066;28;20546;-73
2024/03/06 08:28:18;;;;;;;120.60;27.55;;;;;;;;;;5067726;28;20056;-73
2024/03/06 08:30:45;;;;;;;78.00;27.27;;;;;;;;;;5071826;28;20125;-73
2024/03/06 08:33:11;;;;;;;101.18;27.75;;;;;;;;;;5084973;28;20078;-73
2024/03/06 08:35:39;;;;;;;91.18;26.10;;;;;;;;;;5052672;28;20044;-73
2024/03/06 08:38:06;;;;;;;145.13;26.42;;;;;;;;;;5054603;28;20045;-73
2024/03/06 08:40:33;;;;;;;62.90;27.40;;;;;;;;;;5063879;28;20048;-73
2024/03/06 08:42:59;;;;;;;83.57;26.55;;;;;;;;;;5088580;28;20137;-73
2024/03/06 08:45:26;;;;;;;76.43;30.52;;;;;;;;;;5057277;28;20068;-73
2024/03/06 08:47:55;;;;;;;99.50;29.27;;;;;;;;;;5073771;28;20127;-73
2024/03/06 08:50:22;;;;;;;42.88;20.92;;;;;;;;;;5085787;28;20512;-73
2024/03/06 08:52:48;;;;;;;58.28;26.95;;;;;;;;;;5064035;28;20121;-73
2024/03/06 08:55:15;;;;;;;59.15;27.75;;;;;;;;;;5073295;28;20408;-73
2024/03/06 08:57:41;;;;;;;58.20;28.58;;;;;;;;;;5077459;28;20569;-73
2024/03/06 09:00:11;;;;;;;49.50;26.67;;;;;;;;;;5049318;28;20070;-73
2024/03/06 09:02:38;;;;;;;49.20;26.67;;;;;;;;;;5082127;28;20579;-74
2024/03/06 09:05:05;;;;;;;54.33;27.23;;;;;;;;;;5053695;28;20468;-73
2024/03/06 09:07:36;;;;;;;54.83;27.58;;;;;;;;;;5061468;28;20396;-73
2024/03/06 09:10:06;;;;;;;55.58;27.88;;;;;;;;;;5081146;28;20590;-73
2024/03/06 09:12:32;;;;;;;49.47;26.23;;;;;;;;;;5074397;28;20489;-73
2024/03/06 09:15:00;;;;;;;54.70;28.60;;;;;;;;;;5085749;28;20700;-73
2024/03/06 09:17:27;;;;;;;48.70;26.63;;;;;;;;;;5079207;28;20385;-73
2024/03/06 09:19:53;;;;;;;52.80;28.67;;;;;;;;;;5078559;28;20048;-73
2024/03/06 09:22:34;;;;;;;56.90;28.50;;;;;;;;;;5082091;28;20053;-74
2024/03/06 09:25:01;;;;;;;51.95;27.00;;;;;;;;;;5084730;28;20061;-72
2024/03/06 09:27:28;;;;;;;62.85;27.98;;;;;;;;;;5078784;28;20052;-73
2024/03/06 09:29:56;;;;;;;50.75;24.55;;;;;;;;;;5060059;28;20060;-73
2024/03/06 09:32:23;;;;;;;58.72;28.05;;;;;;;;;;5070823;28;20485;-73
2024/03/06 09:34:50;;;;;;;51.28;27.15;;;;;;;;;;5077435;28;20145;-73
2024/03/06 09:37:16;;;;;;;56.70;26.20;;;;;;;;;;5071259;28;20044;-75
2024/03/06 09:39:42;;;;;;;51.67;28.55;;;;;;;;;;5073113;28;20059;-74
2024/03/06 09:42:09;;;;;;;49.03;25.55;;;;;;;;;;5071705;28;20058;-74
2024/03/06 09:44:36;;;;;;;49.30;26.13;;;;;;;;;;5078954;28;20055;-73
2024/03/06 09:47:06;;;;;;;52.85;27.80;;;;;;;;;;5071499;28;20041;-73
2024/03/06 09:49:33;;;;;;;50.72;27.92;;;;;;;;;;5092014;28;20078;-73
2024/03/06 09:52:01;;;;;;;55.83;25.45;;;;;;;;;;5065646;28;20040;-74
2024/03/06 09:54:29;;;;;;;58.35;29.70;;;;;;;;;;5080886;28;20056;-72
2024/03/06 09:56:57;;;;;;;54.97;29.40;;;;;;;;;;5068414;28;20048;-72
2024/03/06 09:59:23;;;;;;;57.40;29.40;;;;;;;;;;5064610;28;20052;-69
2024/03/06 10:01:54;;;;;;;54.13;29.10;;;;;;;;;;5079217;28;20052;-74
2024/03/06 10:04:21;;;;;;;55.65;29.05;;;;;;;;;;5085187;28;20563;-70
2024/03/06 10:06:48;;;;;;;50.30;27.75;;;;;;;;;;5063891;28;20439;-73
2024/03/06 10:09:21;;;;;;;48.65;26.70;;;;;;;;;;5058898;28;20098;-71
2024/03/06 10:11:48;;;;;;;54.40;28.77;;;;;;;;;;5053921;28;20082;-73
2024/03/06 10:14:15;;;;;;;54.63;29.15;;;;;;;;;;5078678;28;20048;-70
2024/03/06 10:16:55;;;;;;;57.22;29.30;;;;;;;;;;5077566;28;20094;-71
2024/03/06 10:19:23;;;;;;;52.72;28.77;;;;;;;;;;5075667;28;20059;-71
2024/03/06 10:21:53;;;;;;;52.45;29.27;;;;;;;;;;5074036;28;20055;-70
2024/03/06 10:24:23;;;;;;;55.22;28.98;;;;;;;;;;5081263;28;20109;-74
2024/03/06 10:26:58;;;;;;;58.10;29.88;;;;;;;;;;5081654;28;20052;-74
2024/03/06 10:29:25;;;;;;;56.47;29.50;;;;;;;;;;5071861;28;20545;-74
2024/03/06 10:31:54;;;;;;;54.53;27.85;;;;;;;;;;5086899;28;20135;-75
2024/03/06 10:34:21;;;;;;;58.08;28.60;;;;;;;;;;5069524;28;20393;-74
2024/03/06 10:36:53;;;;;;;50.13;27.65;;;;;;;;;;5068599;28;20049;-74
2024/03/06 10:39:20;;;;;;;54.50;28.38;;;;;;;;;;5072228;28;20591;-74
2024/03/06 10:41:51;;;;;;;56.40;29.48;;;;;;;;;;5070513;28;20067;-73
2024/03/06 10:44:20;;;;;;;58.65;31.48;;;;;;;;;;5088533;28;20127;-74
2024/03/06 10:46:47;;;;;;;62.75;31.17;;;;;;;;;;5069385;28;20056;-74
2024/03/06 10:49:14;;;;;;;58.35;30.00;;;;;;;;;;5077800;28;20048;-73
2024/03/06 10:51:43;;;;;;;60.00;31.40;;;;;;;;;;5068390;28;20556;-74
2024/03/06 10:54:11;;;;;;;60.85;32.13;;;;;;;;;;5079358;28;20512;-75
2024/03/06 10:56:42;;;;;;;59.55;31.73;;;;;;;;;;5080836;28;20079;-74
2024/03/06 10:59:15;;;;;;;57.58;29.92;;;;;;;;;;5067884;28;20048;-76
2024/03/06 11:01:44;;;;;;;55.38;30.05;;;;;;;;;;5081769;28;20040;-75
2024/03/06 11:04:11;;;;;;;61.13;29.10;;;;;;;;;;5082965;28;20516;-75
2024/03/06 11:06:38;;;;;;;53.85;27.77;;;;;;;;;;5067693;28;20044;-75
2024/03/06 11:09:06;;;;;;;54.13;29.00;;;;;;;;;;5046836;28;20056;-76
2024/03/06 11:11:32;;;;;;;60.33;30.67;;;;;;;;;;5077827;28;20040;-76
2024/03/06 11:14:04;;;;;;;54.38;28.35;;;;;;;;;;5075806;28;20552;-76
2024/03/06 11:16:33;;;;;;;47.25;26.60;;;;;;;;;;5051907;28;20538;-75
2024/03/06 11:19:07;;;;;;;58.30;29.50;;;;;;;;;;5081147;28;20046;-75
2024/03/06 11:21:34;;;;;;;48.78;24.98;;;;;;;;;;5073511;28;20043;-76
2024/03/06 11:24:16;;;;;;;60.58;30.33;;;;;;;;;;5083743;28;20043;-76
2024/03/06 11:26:56;;;;;;;55.83;30.00;;;;;;;;;;5055742;28;20052;-76
2024/03/06 11:29:23;;;;;;;57.58;30.48;;;;;;;;;;5055884;28;20048;-76
2024/03/06 11:32:00;;;;;;;58.08;29.85;;;;;;;;;;5068954;28;20060;-76
2024/03/06 11:34:27;;;;;;;56.55;29.45;;;;;;;;;;5075320;28;20446;-76
2024/03/06 11:36:56;;;;;;;54.05;27.83;;;;;;;;;;5069928;28;20150;-75
2024/03/06 11:39:22;;;;;;;56.92;29.85;;;;;;;;;;5071206;28;20648;-75
2024/03/06 11:41:50;;;;;;;45.30;25.00;;;;;;;;;;5086581;28;20723;-76
2024/03/06 11:44:17;;;;;;;51.03;28.20;;;;;;;;;;5073095;28;20070;-75
2024/03/06 11:46:44;;;;;;;53.03;28.58;;;;;;;;;;5074093;28;20056;-75
2024/03/06 11:49:20;;;;;;;50.40;28.25;;;;;;;;;;5069903;28;20064;-76
2024/03/06 11:51:48;;;;;;;55.47;30.27;;;;;;;;;;5075804;28;20046;-75
2024/03/06 11:54:14;;;;;;;57.50;30.00;;;;;;;;;;5074473;28;20052;-76
2024/03/06 11:56:41;;;;;;;53.15;29.95;;;;;;;;;;5079791;28;20078;-76
2024/03/06 11:59:09;;;;;;;53.88;28.52;;;;;;;;;;5086523;28;20138;-76
2024/03/06 12:01:40;;;;;;;54.28;28.30;;;;;;;;;;5072846;28;20052;-75
2024/03/06 12:04:06;;;;;;;55.88;27.20;;;;;;;;;;5071138;28;20105;-75
2024/03/06 12:06:33;;;;;;;49.25;27.85;;;;;;;;;;5085045;28;20551;-76
2024/03/06 12:09:00;;;;;;;47.85;27.33;;;;;;;;;;5063739;28;20109;-76
2024/03/06 12:11:28;;;;;;;50.55;27.23;;;;;;;;;;5079235;28;20112;-76
2024/03/06 12:13:55;;;;;;;47.47;26.05;;;;;;;;;;5064844;28;20167;-76
2024/03/06 12:16:22;;;;;;;47.38;25.65;;;;;;;;;;5066548;28;20497;-76
2024/03/06 12:18:58;;;;;;;44.58;25.02;;;;;;;;;;5050641;28;20522;-75
2024/03/06 12:21:28;;;;;;;46.88;27.27;;;;;;;;;;5062602;28;20053;-75
2024/03/06 12:24:02;;;;;;;46.08;25.23;;;;;;;;;;5075561;28;20139;-76
2024/03/06 12:26:30;;;;;;;51.17;27.48;;;;;;;;;;5062560;28;20645;-75
2024/03/06 12:29:04;;;;;;;50.07;27.50;;;;;;;;;;5078682;28;20473;-76
2024/03/06 12:31:31;;;;;;;47.42;26.73;;;;;;;;;;5059371;28;20286;-76
2024/03/06 12:33:58;;;;;;;48.08;26.63;;;;;;;;;;5077378;28;20053;-76
2024/03/06 12:36:29;;;;;;;49.50;26.55;;;;;;;;;;5078172;28;20075;-76
2024/03/06 12:38:56;;;;;;;;;;;;;;;;;;5073399;28;20140;-76
2024/03/06 12:41:22;;;;;;;45.45;25.05;;;;;;;;;;5078378;28;20020;-76
2024/03/06 12:43:49;;;;;;;44.40;26.23;;;;;;;;;;5053031;28;20144;-76
2024/03/06 12:46:15;;;;;;;46.97;28.00;;;;;;;;;;5088148;28;20063;-76
2024/03/06 12:48:42;;;;;;;44.38;26.60;;;;;;;;;;5076997;28;20040;-76
2024/03/06 12:51:08;;;;;;;42.60;24.70;;;;;;;;;;5073005;28;20056;-76
2024/03/06 12:53:35;;;;;;;45.35;26.55;;;;;;;;;;5071075;28;20730;-76
2024/03/06 12:56:02;;;;;;;45.65;26.98;;;;;;;;;;5075790;28;20047;-75
2024/03/06 12:58:31;;;;;;;47.40;27.35;;;;;;;;;;5070725;28;20489;-76
2024/03/06 13:00:57;;;;;;;;;;;;;;;;;;5078838;28;20498;-75
2024/03/06 13:03:24;;;;;;;46.55;27.55;;;;;;;;;;5081155;28;19924;-75
2024/03/06 13:05:50;;;;;;;43.10;26.30;;;;;;;;;;5084630;28;20062;-75
2024/03/06 13:08:17;;;;;;;40.50;24.63;;;;;;;;;;5076480;28;20052;-75
2024/03/06 13:10:43;;;;;;;43.75;24.67;;;;;;;;;;5077150;28;20465;-75
2024/03/06 13:13:09;;;;;;;48.58;26.63;;;;;;;;;;5065015;28;20051;-75
2024/03/06 13:15:39;;;;;;;43.17;25.58;;;;;;;;;;5089319;28;20112;-75
2024/03/06 13:18:06;;;;;;;42.42;25.75;;;;;;;;;;5081763;28;20131;-76
2024/03/06 13:20:33;;;;;;;43.72;27.77;;;;;;;;;;5055605;28;20121;-76
2024/03/06 13:22:59;;;;;;;43.63;25.80;;;;;;;;;;5074502;28;20859;-76
2024/03/06 13:25:26;;;;;;;38.97;24.30;;;;;;;;;;5049943;28;20128;-75
2024/03/06 13:27:54;;;;;;;39.58;24.52;;;;;;;;;;5071087;28;20090;-75
2024/03/06 13:30:20;;;;;;;33.25;21.58;;;;;;;;;;5083551;28;20048;-76
2024/03/06 13:32:47;;;;;;;37.88;22.73;;;;;;;;;;5048475;28;20052;-75
2024/03/06 13:35:13;;;;;;;37.22;24.15;;;;;;;;;;5080371;28;20059;-76
2024/03/06 13:37:40;;;;;;;33.97;22.75;;;;;;;;;;5065541;28;20052;-76
2024/03/06 13:40:08;;;;;;;39.45;22.70;;;;;;;;;;5077438;28;20055;-76
2024/03/06 13:42:35;;;;;;;30.85;20.70;;;;;;;;;;5078168;28;20048;-75
2024/03/06 13:45:01;;;;;;;33.38;19.45;;;;;;;;;;5074437;28;20044;-76
2024/03/06 13:47:28;;;;;;;27.13;17.23;;;;;;;;;;5087835;28;20527;-75
2024/03/06 13:49:55;;;;;;;23.33;14.50;;;;;;;;;;5082825;28;20056;-76
2024/03/06 13:52:23;;;;;;;21.20;14.57;;;;;;;;;;5085558;28;20087;-73
2024/03/06 13:54:51;;;;;;;24.42;14.50;;;;;;;;;;5070937;28;20082;-74
2024/03/06 13:57:18;;;;;;;22.65;14.77;;;;;;;;;;5072329;28;20126;-75
2024/03/06 13:59:44;;;;;;;22.65;13.95;;;;;;;;;;5063225;28;20107;-73
2024/03/06 14:02:11;;;;;;;23.30;14.77;;;;;;;;;;5066791;28;20040;-74
2024/03/06 14:04:38;;;;;;;23.45;14.95;;;;;;;;;;5099917;28;20102;-74
2024/03/06 14:07:04;;;;;;;22.48;14.90;;;;;;;;;;5090933;28;20500;-74
2024/03/06 14:09:31;;;;;;;21.83;14.90;;;;;;;;;;5087682;28;20174;-73
2024/03/06 14:11:57;;;;;;;23.52;15.00;;;;;;;;;;5091114;28;20048;-73
2024/03/06 14:14:24;;;;;;;20.73;14.07;;;;;;;;;;5066054;28;20481;-74
2024/03/06 14:16:51;;;;;;;20.05;13.23;;;;;;;;;;5083852;28;20052;-73
2024/03/06 14:19:17;;;;;;;21.13;14.45;;;;;;;;;;5081153;28;20484;-74
2024/03/06 14:21:47;;;;;;;20.38;13.15;;;;;;;;;;5082943;28;20060;-73